Time;durP1;ratioP1;P1;durP2;ratioP2;P2;SDS_P1;SDS_P2;PMS_P1;PMS_P2;Temp;Humidity;BMP_temperature;BMP_pressure;BME280_temperature;BME280_humidity;BME280_pressure;Samples;Min_cycle;Max_cycle;Signal;HPM_P1;HPM_P2
2023/08/21 00:01:27;;;;;;;11.50;10.40;;;;;;;22.91;70.95;99828.48;105815;1253;60509;-76
2023/08/21 00:03:54;;;;;;;12.10;10.50;;;;;;;22.89;71.19;99829.14;105929;1254;60442;-76
2023/08/21 00:06:20;;;;;;;10.70;9.70;;;;;;;22.86;71.93;99826.98;105601;1257;73807;-76
2023/08/21 00:08:47;;;;;;;10.70;9.30;;;;;;;22.90;72.24;99833.72;105756;1256;70030;-77
2023/08/21 00:11:14;;;;;;;10.60;9.50;;;;;;;22.94;71.77;99838.48;105835;1258;72541;-77
2023/08/21 00:13:44;;;;;;;10.70;9.80;;;;;;;22.93;71.78;99844.00;105810;1253;60560;-74
2023/08/21 00:16:11;;;;;;;11.00;10.00;;;;;;;22.89;71.86;99842.75;105776;1253;60368;-77
2023/08/21 00:18:37;;;;;;;11.00;10.00;;;;;;;22.86;72.12;99845.95;105783;1253;73722;-75
2023/08/21 00:21:04;;;;;;;10.90;10.00;;;;;;;22.82;71.83;99846.96;105832;1253;70357;-77
2023/08/21 00:23:31;;;;;;;12.40;11.30;;;;;;;22.80;71.94;99845.95;105860;1257;71764;-73
2023/08/21 00:25:58;;;;;;;11.50;10.50;;;;;;;22.78;72.23;99845.88;105829;1253;62033;-75
2023/08/21 00:28:24;;;;;;;11.60;10.40;;;;;;;22.83;72.34;99846.28;105925;1254;60530;-76
2023/08/21 00:30:51;;;;;;;11.40;10.40;;;;;;;22.86;72.39;99848.55;105993;1257;73910;-77
2023/08/21 00:33:18;;;;;;;12.00;10.80;;;;;;;22.84;72.35;99849.11;105787;1253;70559;-76
2023/08/21 00:35:44;;;;;;;11.60;10.70;;;;;;;22.81;72.74;99848.62;105567;1256;72664;-75
2023/08/21 00:38:11;;;;;;;11.10;10.20;;;;;;;22.78;72.64;99848.23;105673;1253;61045;-75
2023/08/21 00:40:38;;;;;;;12.00;10.80;;;;;;;22.75;72.53;99847.23;105910;1255;60494;-76
2023/08/21 00:43:05;;;;;;;12.50;10.10;;;;;;;22.72;72.78;99844.30;105699;1260;72615;-76
2023/08/21 00:45:32;;;;;;;10.90;9.80;;;;;;;22.76;73.04;99850.77;106765;1253;70307;-78
2023/08/21 00:47:59;;;;;;;10.80;9.80;;;;;;;22.81;72.91;99849.33;107466;1256;71191;-78
2023/08/21 00:50:26;;;;;;;10.90;9.50;;;;;;;22.80;72.63;99847.46;106685;1260;60503;-78
2023/08/21 00:52:52;;;;;;;11.00;9.90;;;;;;;22.78;72.71;99844.73;105849;1253;60933;-78
2023/08/21 00:55:19;;;;;;;10.90;9.90;;;;;;;22.75;72.74;99842.85;105948;1259;73785;-78
2023/08/21 00:57:46;;;;;;;11.10;10.00;;;;;;;22.72;72.81;99841.71;105791;1255;70194;-78
2023/08/21 01:00:13;;;;;;;12.10;10.90;;;;;;;22.69;72.81;99839.17;105622;1256;72726;-78
2023/08/21 01:02:40;;;;;;;11.00;10.00;;;;;;;22.66;72.98;99835.66;105862;1253;62033;-77
2023/08/21 01:05:12;;;;;;;10.50;9.50;;;;;;;22.69;73.01;99834.90;105947;1257;60435;-77
2023/08/21 01:07:46;;;;;;;11.70;9.70;;;;;;;22.73;73.06;99834.09;108387;1253;73891;-76
2023/08/21 01:10:23;;;;;;;10.00;9.10;;;;;;;22.69;73.40;99830.08;105892;1257;68864;-74
2023/08/21 01:13:22;;;;;;;10.80;9.80;;;;;;;22.65;73.35;99830.94;105645;1256;72537;-75
2023/08/21 01:15:51;;;;;;;11.40;10.40;;;;;;;22.61;73.42;99829.12;105934;1253;60313;-75
2023/08/21 01:18:17;;;;;;;11.00;10.00;;;;;;;22.57;73.54;99831.94;105665;1253;60673;-76
2023/08/21 01:20:44;;;;;;;10.80;9.80;;;;;;;22.55;73.61;99833.84;105758;1253;73871;-74
2023/08/21 01:23:25;;;;;;;10.90;10.00;;;;;;;22.59;73.58;99838.41;105618;1253;70042;-76
2023/08/21 01:25:52;;;;;;;11.90;10.10;;;;;;;22.63;73.57;99839.11;105823;1253;72808;-75
2023/08/21 01:28:18;;;;;;;11.10;9.40;;;;;;;22.61;73.91;99839.90;106281;1253;60414;-77
2023/08/21 01:30:45;;;;;;;11.10;10.20;;;;;;;22.58;73.98;99846.21;106980;1253;60783;-76
2023/08/21 01:33:13;;;;;;;11.60;10.40;;;;;;;22.56;74.04;99847.63;107985;1253;72511;-77
2023/08/21 01:35:39;;;;;;;10.40;9.40;;;;;;;22.54;74.21;99847.75;106382;1253;69982;-76
2023/08/21 01:38:06;;;;;;;11.60;10.10;;;;;;;22.53;74.34;99847.63;106200;1253;71422;-79
2023/08/21 01:40:33;;;;;;;11.00;10.00;;;;;;;22.58;75.41;99850.80;106580;1256;61908;-77
2023/08/21 01:42:59;;;;;;;10.70;9.60;;;;;;;22.62;75.52;99853.71;106484;1255;60501;-78
2023/08/21 01:45:27;;;;;;;12.10;10.80;;;;;;;22.60;74.73;99854.19;105953;1253;73739;-77
2023/08/21 01:47:54;;;;;;;11.40;10.40;;;;;;;22.57;74.70;99859.61;105946;1256;70481;-76
2023/08/21 01:50:20;;;;;;;11.20;10.20;;;;;;;22.56;74.61;99859.75;106280;1255;71195;-78
2023/08/21 01:52:47;;;;;;;11.20;10.10;;;;;;;22.54;74.69;99864.59;106072;1253;61805;-77
2023/08/21 01:55:14;;;;;;;10.50;9.60;;;;;;;22.58;74.76;99864.16;105896;1258;60457;-78
2023/08/21 01:57:42;;;;;;;11.10;10.00;;;;;;;22.61;75.02;99863.52;105820;1257;72322;-76
2023/08/21 02:00:10;;;;;;;11.20;10.20;;;;;;;22.59;75.00;99857.31;106429;1253;70651;-77
2023/08/21 02:02:43;;;;;;;12.00;10.80;;;;;;;22.56;75.02;99850.77;106777;1254;72631;-76
2023/08/21 02:05:11;;;;;;;12.20;11.00;;;;;;;22.52;75.13;99849.73;106400;1255;60556;-77
2023/08/21 02:07:38;;;;;;;11.30;10.30;;;;;;;22.49;74.93;99851.34;106024;1253;60542;-77
2023/08/21 02:10:06;;;;;;;12.10;10.10;;;;;;;22.50;74.80;99852.45;105896;1253;72252;-78
2023/08/21 02:12:33;;;;;;;11.40;10.30;;;;;;;22.51;74.81;99855.71;106065;1253;69662;-77
2023/08/21 02:15:02;;;;;;;11.50;10.50;;;;;;;22.48;75.00;99857.54;105646;1256;72544;-77
2023/08/21 02:17:32;;;;;;;12.00;10.80;;;;;;;22.42;75.29;99856.09;105656;1260;60541;-76
2023/08/21 02:19:59;;;;;;;12.60;11.30;;;;;;;22.35;75.59;99855.86;105751;1257;60372;-77
2023/08/21 02:22:25;;;;;;;12.20;10.40;;;;;;;22.31;75.84;99855.23;105772;1253;73658;-77
2023/08/21 02:24:52;;;;;;;12.00;10.40;;;;;;;22.35;75.83;99858.51;105996;1253;70446;-80
2023/08/21 02:27:19;;;;;;;12.10;11.10;;;;;;;22.37;75.81;99855.14;105994;1253;72547;-76
2023/08/21 02:29:46;;;;;;;12.10;11.00;;;;;;;22.34;76.03;99856.00;106038;1253;60491;-77
2023/08/21 02:32:13;;;;;;;12.80;10.80;;;;;;;22.30;76.43;99850.79;105985;1253;60569;-77
2023/08/21 02:34:40;;;;;;;12.70;11.50;;;;;;;22.27;76.41;99856.02;105871;1253;73739;-77
2023/08/21 02:37:07;;;;;;;11.60;10.50;;;;;;;22.23;76.44;99858.30;105840;1253;70170;-77
2023/08/21 02:39:34;;;;;;;11.50;10.30;;;;;;;22.25;76.14;99854.46;105899;1253;71063;-77
2023/08/21 02:42:00;;;;;;;11.20;10.30;;;;;;;22.27;76.11;99857.64;105987;1254;60471;-80
2023/08/21 02:44:27;;;;;;;11.50;10.40;;;;;;;22.23;76.56;99861.28;105922;1257;60317;-78
2023/08/21 02:46:54;;;;;;;13.50;12.20;;;;;;;22.18;77.00;99858.02;106019;1258;73940;-78
2023/08/21 02:49:20;;;;;;;11.20;10.10;;;;;;;22.15;77.19;99861.46;105787;1255;70197;-80
2023/08/21 02:51:50;;;;;;;11.20;10.20;;;;;;;22.18;77.03;99859.96;105843;1256;60446;-78
2023/08/21 02:54:16;;;;;;;11.30;10.30;;;;;;;22.22;76.88;99860.77;105913;1253;60344;-78
2023/08/21 02:56:43;;;;;;;11.90;10.40;;;;;;;22.17;76.89;99857.98;106997;1258;60448;-77
2023/08/21 02:59:11;;;;;;;12.60;11.50;;;;;;;22.13;77.47;99857.79;108259;1253;72635;-78
2023/08/21 03:01:38;;;;;;;12.30;11.30;;;;;;;22.11;77.78;99857.71;108892;1253;68688;-79
2023/08/21 03:04:05;;;;;;;12.00;10.90;;;;;;;22.17;77.73;99852.08;107354;1252;71247;-78
2023/08/21 03:06:31;;;;;;;12.40;11.20;;;;;;;22.22;77.78;99848.87;106514;1256;60445;-79
2023/08/21 03:08:58;;;;;;;13.00;11.70;;;;;;;22.20;77.73;99849.88;106244;1253;60489;-79
2023/08/21 03:11:25;;;;;;;12.60;11.20;;;;;;;22.18;77.83;99848.85;106446;1257;72730;-77
2023/08/21 03:13:51;;;;;;;12.50;11.20;;;;;;;22.15;77.64;99846.58;106950;1253;68989;-80
2023/08/21 03:16:18;;;;;;;11.40;10.20;;;;;;;22.13;77.81;99844.33;106232;1256;71228;-81
2023/08/21 03:18:58;;;;;;;11.30;10.30;;;;;;;22.19;77.57;99843.84;106499;1257;60585;-79
2023/08/21 03:21:27;;;;;;;12.40;10.40;;;;;;;22.23;77.32;99843.04;105711;1253;60650;-79
2023/08/21 03:23:55;;;;;;;12.60;11.40;;;;;;;22.19;77.59;99848.06;105797;1261;73802;-78
2023/08/21 03:26:23;;;;;;;12.40;11.10;;;;;;;22.14;77.69;99843.30;105822;1253;70071;-78
2023/08/21 03:28:49;;;;;;;11.90;10.90;;;;;;;22.11;77.71;99846.55;105785;1258;72724;-75
2023/08/21 03:31:16;;;;;;;12.00;10.80;;;;;;;22.10;77.94;99846.59;105879;1258;60440;-76
2023/08/21 03:33:43;;;;;;;11.40;9.90;;;;;;;22.16;78.15;99847.31;105686;1258;60411;-77
2023/08/21 03:36:10;;;;;;;12.40;11.30;;;;;;;22.21;77.84;99850.73;105642;1256;71772;-78
2023/08/21 03:38:37;;;;;;;12.90;11.00;;;;;;;22.22;77.97;99851.02;105796;1253;70235;-78
2023/08/21 03:41:05;;;;;;;12.90;11.60;;;;;;;22.20;77.76;99848.30;105839;1257;72734;-76
2023/08/21 03:43:32;;;;;;;13.30;11.90;;;;;;;22.19;77.89;99845.95;105965;1253;60385;-77
2023/08/21 03:45:59;;;;;;;12.20;10.90;;;;;;;22.20;77.80;99844.02;105883;1255;60489;-77
2023/08/21 03:48:25;;;;;;;14.20;10.80;;;;;;;22.27;77.96;99847.64;106123;1253;72322;-78
2023/08/21 03:50:52;;;;;;;12.20;10.70;;;;;;;22.30;77.75;99845.60;106771;1253;70328;-78
2023/08/21 03:53:20;;;;;;;12.10;11.00;;;;;;;22.31;77.76;99849.50;106737;1256;71452;-78
2023/08/21 03:55:47;;;;;;;15.00;12.40;;;;;;;22.31;77.68;99852.33;106545;1253;60610;-81
2023/08/21 03:58:13;;;;;;;13.00;11.00;;;;;;;22.35;77.58;99848.66;105820;1256;60483;-81
2023/08/21 04:00:40;;;;;;;12.30;10.90;;;;;;;22.49;77.54;99849.55;105921;1257;73578;-83
2023/08/21 04:03:07;;;;;;;11.90;10.90;;;;;;;22.60;77.29;99846.13;105796;1253;70369;-79
2023/08/21 04:05:34;;;;;;;12.10;11.00;;;;;;;22.63;77.14;99847.30;105676;1254;72736;-80
2023/08/21 04:08:00;;;;;;;12.60;11.40;;;;;;;22.65;77.51;99846.02;105838;1253;60461;-82
2023/08/21 04:10:28;;;;;;;12.10;11.00;;;;;;;22.66;77.45;99848.00;105825;1253;60563;-80
2023/08/21 04:12:55;;;;;;;12.30;11.20;;;;;;;22.74;77.03;99848.50;105898;1258;73739;-81
2023/08/21 04:15:22;;;;;;;13.40;12.00;;;;;;;22.80;76.78;99853.48;105756;1253;69672;-81
2023/08/21 04:17:49;;;;;;;12.60;10.80;;;;;;;22.84;77.44;99863.14;105914;1256;71239;-81
2023/08/21 04:20:15;;;;;;;11.90;10.90;;;;;;;22.89;77.15;99858.13;106061;1254;60400;-79
2023/08/21 04:22:42;;;;;;;13.40;11.10;;;;;;;22.95;76.70;99862.29;106179;1253;60429;-78
2023/08/21 04:25:09;;;;;;;11.40;10.30;;;;;;;23.07;76.56;99863.84;106216;1253;60433;-78
2023/08/21 04:27:36;;;;;;;13.70;11.10;;;;;;;23.17;76.48;99855.88;108229;1253;69174;-78
2023/08/21 04:30:04;;;;;;;13.50;12.30;;;;;;;23.16;75.81;99856.07;108502;1253;71510;-79
2023/08/21 04:32:31;;;;;;;13.20;11.40;;;;;;;23.14;75.99;99855.93;107146;1255;60905;-79
2023/08/21 04:34:58;;;;;;;12.90;11.60;;;;;;;23.15;76.43;99857.95;106219;1257;60585;-81
2023/08/21 04:37:25;;;;;;;11.90;10.50;;;;;;;23.24;76.55;99858.36;106650;1253;73775;-80
2023/08/21 04:39:55;;;;;;;13.30;11.90;;;;;;;23.37;76.43;99860.72;106030;1257;70269;-78
2023/08/21 04:42:22;;;;;;;12.40;11.20;;;;;;;23.45;76.41;99855.17;105663;1260;71819;-79
2023/08/21 04:44:49;;;;;;;13.60;12.20;;;;;;;23.47;76.15;99857.11;105946;1253;60439;-82
2023/08/21 04:47:23;;;;;;;12.60;11.50;;;;;;;23.48;76.38;99862.16;105664;1258;60310;-80
2023/08/21 04:52:52;;;;;;;12.60;11.50;;;;;;;23.75;75.82;99861.71;103273;1296;601298;-81
2023/08/21 04:55:21;;;;;;;11.90;10.80;;;;;;;23.77;75.75;99866.13;105550;1271;60180;-79
2023/08/21 04:57:49;;;;;;;12.20;11.10;;;;;;;23.77;75.26;99860.75;105255;1275;59518;-81
2023/08/21 05:00:17;;;;;;;12.50;11.20;;;;;;;23.77;75.08;99864.92;105249;1267;72420;-81
2023/08/21 05:02:44;;;;;;;11.20;10.20;;;;;;;23.77;75.07;99859.48;105320;1263;69277;-82
2023/08/21 05:05:12;;;;;;;12.60;11.60;;;;;;;23.84;74.82;99864.02;105742;1264;72928;-82
2023/08/21 05:07:40;;;;;;;13.60;12.20;;;;;;;23.87;74.90;99866.38;105417;1263;186398;-82
2023/08/21 05:10:08;;;;;;;12.50;11.50;;;;;;;23.87;75.07;99867.41;105881;1258;59152;-81
2023/08/21 05:12:36;;;;;;;13.10;12.00;;;;;;;23.89;74.85;99870.49;106165;1260;71044;-80
2023/08/21 05:15:04;;;;;;;12.20;11.20;;;;;;;23.91;75.44;99871.27;107352;1262;69258;-78
2023/08/21 05:17:32;;;;;;;12.60;11.30;;;;;;;24.00;75.09;99865.29;106680;1257;72649;-81
2023/08/21 05:20:00;;;;;;;13.40;11.90;;;;;;;24.09;74.17;99866.44;106920;1264;59736;-77
2023/08/21 05:22:28;;;;;;;12.00;10.90;;;;;;;24.13;73.75;99869.08;105584;1257;59210;-76
2023/08/21 05:24:55;;;;;;;13.70;11.20;;;;;;;24.15;73.71;99862.42;105625;1257;72494;-73
2023/08/21 05:27:23;;;;;;;11.70;10.70;;;;;;;24.19;73.53;99863.05;105751;1263;68715;-74
2023/08/21 05:29:51;;;;;;;12.90;11.80;;;;;;;24.21;73.47;99863.67;105643;1260;72171;-78
2023/08/21 05:32:18;;;;;;;13.10;10.50;;;;;;;24.24;73.84;99859.64;105450;1261;61714;-75
2023/08/21 05:34:46;;;;;;;12.50;11.00;;;;;;;24.35;73.70;99857.69;105409;1273;59490;-77
2023/08/21 05:37:13;;;;;;;13.00;11.70;;;;;;;24.46;73.40;99854.15;105548;1264;71780;-79
2023/08/21 05:39:41;;;;;;;12.50;11.10;;;;;;;24.52;73.16;99859.94;105537;1257;69957;-76
2023/08/21 05:42:08;;;;;;;14.30;11.20;;;;;;;24.57;72.82;99861.67;105925;1257;71265;-74
2023/08/21 05:44:36;;;;;;;12.90;11.70;;;;;;;24.62;72.80;99862.27;106600;1258;59723;-77
2023/08/21 05:47:04;;;;;;;14.10;12.80;;;;;;;24.68;73.25;99862.74;106801;1262;60035;-78
2023/08/21 05:49:31;;;;;;;13.60;12.20;;;;;;;24.78;73.36;99863.75;105324;1261;73973;-76
2023/08/21 05:51:59;;;;;;;12.40;11.10;;;;;;;24.92;72.97;99862.30;105539;1261;69503;-76
2023/08/21 05:54:26;;;;;;;12.50;11.30;;;;;;;25.06;72.58;99863.15;105905;1261;72952;-77
2023/08/21 05:56:55;;;;;;;14.10;11.90;;;;;;;25.12;71.95;99862.16;105527;1260;60101;-77
2023/08/21 05:59:32;;;;;;;12.30;11.30;;;;;;;25.16;71.99;99861.48;105551;1263;59710;-77
2023/08/21 06:02:01;;;;;;;12.40;11.10;;;;;;;25.26;71.76;99864.03;105530;1258;71825;-76
2023/08/21 06:04:28;;;;;;;12.90;11.60;;;;;;;25.38;71.77;99856.65;105524;1264;68705;-76
2023/08/21 06:07:01;;;;;;;13.40;12.10;;;;;;;25.56;71.89;99857.13;105426;1263;72764;-75
2023/08/21 06:09:29;;;;;;;13.90;12.40;;;;;;;25.73;71.48;99853.16;105403;1257;60021;-76
2023/08/21 06:11:57;;;;;;;14.70;11.60;;;;;;;25.91;70.95;99858.33;105570;1257;60010;-76
2023/08/21 06:14:28;;;;;;;12.90;11.60;;;;;;;26.12;69.99;99857.69;105394;1261;73169;-76
2023/08/21 06:16:59;;;;;;;12.20;11.20;;;;;;;26.27;69.65;99857.08;105476;1257;70104;-76
2023/08/21 06:19:28;;;;;;;12.00;10.60;;;;;;;26.37;69.02;99852.89;105623;1257;72700;-76
2023/08/21 06:21:55;;;;;;;11.90;11.00;;;;;;;26.42;68.37;99857.52;105388;1260;62337;-78
2023/08/21 06:24:23;;;;;;;12.80;11.60;;;;;;;26.46;68.47;99859.55;105524;1257;59713;-76
2023/08/21 06:26:55;;;;;;;13.40;11.90;;;;;;;26.52;68.80;99860.54;105665;1262;73043;-77
2023/08/21 06:29:23;;;;;;;12.30;11.20;;;;;;;26.57;68.60;99863.11;105519;1263;68724;-77
2023/08/21 06:31:50;;;;;;;14.40;12.30;;;;;;;26.62;67.91;99864.34;105315;1264;71373;-76
2023/08/21 06:34:18;;;;;;;14.20;13.00;;;;;;;26.64;67.81;99865.54;105716;1258;59734;-77
2023/08/21 06:36:45;;;;;;;13.20;11.80;;;;;;;26.69;67.52;99864.88;105622;1256;59697;-77
2023/08/21 06:39:13;;;;;;;12.40;11.20;;;;;;;26.73;66.84;99866.14;105538;1258;72969;-77
2023/08/21 06:41:40;;;;;;;13.90;12.60;;;;;;;26.73;67.09;99864.48;105245;1257;70152;-75
2023/08/21 06:44:11;;;;;;;13.20;11.90;;;;;;;26.75;66.90;99865.80;105267;1257;71959;-75
2023/08/21 06:46:39;;;;;;;12.20;10.90;;;;;;;26.75;66.61;99863.02;105282;1257;59763;-73
2023/08/21 06:49:06;;;;;;;12.60;11.50;;;;;;;26.76;66.42;99862.15;105369;1257;60203;-75
2023/08/21 06:51:34;;;;;;;12.70;11.40;;;;;;;26.78;66.14;99859.44;105381;1263;72217;-77
2023/08/21 06:54:01;;;;;;;13.60;10.80;;;;;;;26.81;65.89;99856.70;105926;1254;70385;-75
2023/08/21 06:56:28;;;;;;;12.60;11.30;;;;;;;26.84;65.48;99854.15;105958;1255;72720;-74
2023/08/21 06:58:56;;;;;;;12.30;11.00;;;;;;;26.87;65.53;99850.44;106063;1257;60351;-77
2023/08/21 07:01:23;;;;;;;11.60;10.50;;;;;;;26.92;67.49;99852.06;106112;1260;60981;-76
2023/08/21 07:03:51;;;;;;;13.40;10.00;;;;;;;26.96;67.22;99849.98;105875;1257;73095;-77
2023/08/21 07:06:18;;;;;;;11.80;10.60;;;;;;;27.02;65.97;99854.73;106150;1254;68723;-75
2023/08/21 07:08:46;;;;;;;10.70;9.70;;;;;;;27.06;65.69;99853.63;106353;1257;72471;-77
2023/08/21 07:11:13;;;;;;;11.40;10.30;;;;;;;27.11;65.63;99858.38;106590;1258;60167;-75
2023/08/21 07:13:43;;;;;;;10.60;9.60;;;;;;;27.17;64.72;99855.85;107739;1258;59034;-76
2023/08/21 07:16:11;;;;;;;11.40;9.60;;;;;;;27.22;64.56;99854.81;106952;1256;71430;-76
2023/08/21 07:18:38;;;;;;;11.80;9.90;;;;;;;27.30;64.32;99854.22;106234;1254;70287;-75
2023/08/21 07:21:06;;;;;;;10.70;9.70;;;;;;;27.37;64.13;99852.29;106489;1259;72833;-76
2023/08/21 07:23:53;;;;;;;10.10;9.10;;;;;;;27.45;64.46;99853.63;106489;1259;59741;-77
2023/08/21 07:26:20;;;;;;;10.60;9.50;;;;;;;27.52;63.76;99850.62;107242;1254;60034;-77
2023/08/21 07:28:47;;;;;;;10.60;9.30;;;;;;;27.58;63.32;99847.86;106961;1254;72565;-76
2023/08/21 07:31:15;;;;;;;12.30;9.70;;;;;;;27.65;63.34;99851.92;107544;1256;70617;-76
2023/08/21 07:33:42;;;;;;;11.80;9.60;;;;;;;27.71;63.02;99851.14;107415;1256;74181;-75
2023/08/21 07:36:14;;;;;;;9.90;8.80;;;;;;;27.78;62.86;99852.20;106210;1254;60422;-75
2023/08/21 07:38:44;;;;;;;9.80;8.60;;;;;;;27.84;62.10;99846.45;106003;1260;59639;-76
2023/08/21 07:41:12;;;;;;;11.30;9.20;;;;;;;27.86;61.66;99847.09;105588;1254;71818;-77
2023/08/21 07:43:41;;;;;;;11.60;8.80;;;;;;;27.91;61.53;99847.70;105783;1260;68242;-75
2023/08/21 07:46:13;;;;;;;9.10;8.40;;;;;;;27.97;61.40;99849.36;105796;1256;72335;-75
2023/08/21 07:48:41;;;;;;;9.00;8.10;;;;;;;28.03;61.28;99848.17;105850;1259;59610;-75
2023/08/21 07:51:08;;;;;;;11.20;8.70;;;;;;;28.04;60.49;99845.83;105705;1255;59818;-77
2023/08/21 07:53:36;;;;;;;9.80;8.70;;;;;;;28.02;60.45;99844.80;105730;1254;71840;-77
2023/08/21 07:56:04;;;;;;;9.50;8.60;;;;;;;27.99;60.97;99843.73;105888;1258;70301;-76
2023/08/21 07:58:32;;;;;;;9.90;8.70;;;;;;;27.95;61.56;99844.07;105720;1254;72531;-76
2023/08/21 08:01:01;;;;;;;9.70;8.80;;;;;;;27.96;61.33;99841.66;105907;1254;60202;-78
2023/08/21 08:03:29;;;;;;;9.70;8.70;;;;;;;28.04;61.44;99843.42;106021;1257;59641;-77
2023/08/21 08:05:56;;;;;;;9.70;8.80;;;;;;;28.13;61.14;99845.00;105791;1259;75821;-77
2023/08/21 08:08:24;;;;;;;10.70;8.50;;;;;;;28.20;60.73;99840.59;105694;1257;70109;-77
2023/08/21 08:10:52;;;;;;;11.00;9.10;;;;;;;28.26;60.80;99841.27;105801;1256;72526;-78
2023/08/21 08:13:19;;;;;;;9.60;8.70;;;;;;;28.35;60.42;99832.25;106076;1254;60075;-77
2023/08/21 08:15:46;;;;;;;15.10;9.70;;;;;;;28.45;60.23;99832.66;107482;1256;60004;-78
2023/08/21 08:18:14;;;;;;;10.40;8.90;;;;;;;28.53;60.05;99832.64;107836;1253;71734;-81
2023/08/21 08:20:41;;;;;;;15.60;9.50;;;;;;;28.61;59.76;99837.77;106834;1254;70362;-77
2023/08/21 08:23:09;;;;;;;10.40;8.70;;;;;;;28.71;59.62;99837.25;106186;1255;71389;-77
2023/08/21 08:25:36;;;;;;;10.70;8.90;;;;;;;28.81;59.57;99835.46;106554;1254;60025;-78
2023/08/21 08:28:04;;;;;;;10.70;9.30;;;;;;;28.92;59.37;99832.58;105725;1254;59829;-77
2023/08/21 08:30:31;;;;;;;10.60;9.10;;;;;;;29.04;58.85;99833.17;106189;1257;73344;-78
2023/08/21 08:32:58;;;;;;;13.20;9.70;;;;;;;29.14;58.91;99831.30;105794;1254;68653;-77
2023/08/21 08:35:26;;;;;;;10.90;9.30;;;;;;;29.20;57.54;99831.94;105734;1255;73084;-79
2023/08/21 08:37:54;;;;;;;10.80;8.90;;;;;;;29.22;59.13;99831.33;105542;1256;60066;-78
2023/08/21 08:40:22;;;;;;;7.80;7.20;;;;;;;29.25;58.18;99827.45;105767;1259;60346;-79
2023/08/21 08:42:49;;;;;;;9.60;8.10;;;;;;;29.35;57.50;99824.67;105743;1258;73042;-76
2023/08/21 08:45:17;;;;;;;19.50;9.00;;;;;;;29.49;57.10;99820.66;106013;1256;70115;-78
2023/08/21 08:47:46;;;;;;;10.10;8.20;;;;;;;29.66;57.31;99823.86;106022;1261;70779;-77
2023/08/21 08:50:14;;;;;;;9.60;8.70;;;;;;;29.84;56.96;99820.86;105698;1254;59730;-76
2023/08/21 08:52:41;;;;;;;9.70;8.60;;;;;;;30.01;56.58;99818.06;105738;1254;59992;-78
2023/08/21 08:55:09;;;;;;;9.70;8.80;;;;;;;30.19;55.41;99821.46;105668;1254;73084;-79
2023/08/21 08:57:36;;;;;;;9.20;8.10;;;;;;;30.34;55.69;99823.27;105541;1258;68700;-78
2023/08/21 09:00:05;;;;;;;11.90;8.20;;;;;;;30.47;54.82;99817.00;105789;1258;72670;-77
2023/08/21 09:02:40;;;;;;;10.90;8.10;;;;;;;30.63;54.66;99811.96;105835;1254;62289;-78
2023/08/21 09:05:10;;;;;;;8.30;7.50;;;;;;;30.84;54.90;99810.03;105715;1260;59891;-78
2023/08/21 09:07:37;;;;;;;9.20;7.70;;;;;;;31.03;54.42;99807.06;105559;1260;72616;-78
2023/08/21 09:10:05;;;;;;;8.90;8.00;;;;;;;31.20;54.51;99807.94;105641;1254;70302;-79
2023/08/21 09:12:33;;;;;;;7.90;7.30;;;;;;;31.41;53.69;99804.96;105713;1258;71842;-78
2023/08/21 09:15:01;;;;;;;9.00;8.30;;;;;;;31.63;53.94;99808.42;105715;1260;60556;-79
2023/08/21 09:17:30;;;;;;;8.30;7.60;;;;;;;31.81;52.97;99807.50;105686;1256;60938;-78
2023/08/21 09:20:04;;;;;;;8.00;7.30;;;;;;;31.87;52.10;99801.71;106018;1255;73870;-78
2023/08/21 09:22:31;;;;;;;11.60;7.90;;;;;;;31.83;51.91;99802.67;105772;1256;68510;-79
2023/08/21 09:25:00;;;;;;;8.90;8.10;;;;;;;31.75;52.20;99803.21;105591;1260;72673;-77
2023/08/21 09:27:28;;;;;;;8.00;7.10;;;;;;;31.65;51.99;99804.77;105811;1257;60563;-78
2023/08/21 09:29:55;;;;;;;8.60;7.90;;;;;;;31.57;52.15;99804.83;105680;1256;60414;-78
2023/08/21 09:32:22;;;;;;;10.70;7.30;;;;;;;31.65;52.37;99800.31;106266;1254;72616;-78
2023/08/21 09:34:50;;;;;;;8.90;8.00;;;;;;;31.91;53.10;99798.25;106932;1259;69031;-77
2023/08/21 09:37:18;;;;;;;8.00;7.10;;;;;;;32.31;53.39;99794.34;106427;1258;71408;-76
2023/08/21 09:39:46;;;;;;;8.20;7.40;;;;;;;32.58;51.45;99790.60;106208;1254;60413;-78
2023/08/21 09:42:13;;;;;;;7.30;6.70;;;;;;;32.67;51.94;99791.58;105740;1253;60504;-78
2023/08/21 09:44:43;;;;;;;9.30;7.40;;;;;;;32.72;50.53;99789.33;106415;1254;72956;-76
2023/08/21 09:47:11;;;;;;;8.30;7.50;;;;;;;32.75;49.42;99783.48;106301;1254;68868;-77
2023/08/21 09:49:39;;;;;;;8.90;8.10;;;;;;;32.69;49.35;99779.54;106133;1256;71996;-77
2023/08/21 09:52:07;;;;;;;11.20;7.90;;;;;;;32.56;49.94;99772.00;105830;1254;60616;-76
2023/08/21 09:54:34;;;;;;;9.30;8.50;;;;;;;32.57;50.72;99772.05;105733;1254;60543;-78
2023/08/21 09:57:03;;;;;;;10.10;9.20;;;;;;;32.58;50.83;99772.35;105758;1254;73728;-76
2023/08/21 09:59:31;;;;;;;10.00;9.00;;;;;;;32.53;50.06;99773.23;105900;1253;70334;-77
2023/08/21 10:02:00;;;;;;;9.70;8.50;;;;;;;32.35;49.73;99780.67;105811;1253;73410;-76
2023/08/21 10:04:29;;;;;;;10.80;9.40;;;;;;;32.09;50.09;99783.20;105949;1254;60503;-78
2023/08/21 10:06:57;;;;;;;12.30;10.60;;;;;;;31.79;51.72;99782.64;105857;1254;60354;-78
2023/08/21 10:09:25;;;;;;;12.10;10.20;;;;;;;31.48;53.66;99785.45;105566;1253;72786;-78
2023/08/21 10:11:53;;;;;;;11.40;10.30;;;;;;;31.15;55.23;99790.09;105894;1253;70538;-79
2023/08/21 10:14:23;;;;;;;17.20;11.30;;;;;;;30.82;56.15;99795.58;105599;1256;72674;-78
2023/08/21 10:16:53;;;;;;;16.70;11.50;;;;;;;30.47;59.89;99799.39;105784;1258;61107;-74
2023/08/21 10:19:21;;;;;;;18.10;13.00;;;;;;;30.07;63.63;99811.63;105790;1254;61156;-73
2023/08/21 10:21:49;;;;;;;19.40;12.90;;;;;;;29.57;64.68;99833.76;105822;1258;74706;-73
2023/08/21 10:24:28;;;;;;;27.10;14.80;;;;;;;28.92;67.05;99831.16;105858;1253;70450;-75
2023/08/21 10:26:58;;;;;;;15.00;11.50;;;;;;;28.12;72.72;99809.98;105453;1254;73107;-73
2023/08/21 10:29:26;;;;;;;14.40;12.00;;;;;;;27.46;78.29;99811.40;105699;1253;60504;-73
2023/08/21 10:32:04;;;;;;;10.00;8.20;;;;;;;27.08;82.34;99813.16;105775;1253;60550;-74
2023/08/21 10:34:33;;;;;;;11.00;9.80;;;;;;;26.84;83.16;99806.06;105819;1257;73997;-74
2023/08/21 10:37:05;;;;;;;11.60;9.80;;;;;;;26.75;84.06;99802.20;105882;1253;69936;-76
2023/08/21 10:39:35;;;;;;;10.60;9.50;;;;;;;26.78;86.28;99802.04;106019;1254;72423;-74
2023/08/21 10:42:03;;;;;;;12.00;10.90;;;;;;;26.86;89.15;99810.42;105809;1256;61677;-75
2023/08/21 10:44:35;;;;;;;13.60;10.10;;;;;;;26.99;91.49;99813.67;105772;1254;60417;-76
2023/08/21 10:47:25;;;;;;;10.30;9.30;;;;;;;27.25;91.90;99811.05;105744;1253;73834;-75
2023/08/21 10:49:54;;;;;;;9.70;8.90;;;;;;;27.72;89.49;99801.69;105769;1258;69228;-76
2023/08/21 10:52:25;;;;;;;9.80;8.80;;;;;;;28.31;89.01;99795.02;105909;1253;72736;-76
2023/08/21 10:54:54;;;;;;;9.10;8.30;;;;;;;29.08;84.02;99799.65;106266;1253;60788;-82
2023/08/21 10:57:23;;;;;;;9.80;8.80;;;;;;;29.86;80.78;99798.58;107795;1253;60540;-81
2023/08/21 10:59:58;;;;;;;9.50;8.70;;;;;;;30.66;78.51;99795.20;107457;1258;72395;-80
2023/08/21 11:02:28;;;;;;;9.40;8.60;;;;;;;31.50;73.76;99797.75;106157;1258;69034;-82
2023/08/21 11:04:57;;;;;;;12.00;10.80;;;;;;;32.23;71.34;99795.88;106098;1253;72933;-83
2023/08/21 11:07:25;;;;;;;14.00;10.00;;;;;;;32.91;70.90;99791.57;106473;1253;60433;-83
2023/08/21 11:09:53;;;;;;;10.60;9.80;;;;;;;33.46;66.69;99787.70;106025;1254;60793;-81
2023/08/21 11:12:22;;;;;;;11.90;10.90;;;;;;;33.80;65.98;99788.96;106178;1260;73955;-79
2023/08/21 11:14:49;;;;;;;12.90;11.00;;;;;;;34.08;65.40;99782.85;105984;1254;69972;-80
2023/08/21 11:17:18;;;;;;;10.90;9.60;;;;;;;34.39;63.90;99775.80;106170;1253;72792;-82
2023/08/21 11:19:48;;;;;;;12.30;11.20;;;;;;;34.71;63.13;99776.80;106083;1254;60480;-79
2023/08/21 11:22:16;;;;;;;11.40;10.40;;;;;;;35.08;61.77;99771.41;106064;1254;60457;-79